Terminal Aerodrome Forecast
Issued by NWS

Home | Current Version | Previous Version | Text Only | Print | Product List | Glossary On
Versions: 1 2 3 4 5 6 7 8 9 10 11 12 13 14 15 16 17 18 19 20 21 22 23 24 25 26
986
FTUS45 KFGZ 011126
TAFGCN
TAF
KGCN 011126Z 0112/0212 04008G16KT P6SM FEW025 BKN120 OVC250
      TEMPO 0113/0115 5SM -SHRA BKN025
     FM011600 04007KT P6SM SCT025 BKN060 BKN120
     FM020100 VRB03KT P6SM SCT060 BKN120=

USA.gov is the U.S. government's official web portal to all federal, state and local government web resources and services.